Flight Track Log - Related Links

Times and Time Zones

All times are in EDT time to prevent confusion due to time zone crossing. See the UAL4663 flight status page for this flight to view local times or setup timezone preferences in your user account.

Time Position Orientation Groundspeed Altitude Reporting Facility
EDT Latitude Longitude Course Direction KTS MPH feet Rate Location/Type
Thu 04:06:54 PM 35.4144 -97.6097 154° Southeast 175 201 2,000  Level Fort Worth Center
Thu 04:07:30 PM 35.4372 -97.6353 318° Northwest 196 226 3,000 1,648 Climbing Fort Worth Center
Thu 04:08:25 PM 35.4350 -97.6939 267° West 241 277 4,500 1,402 Climbing Fort Worth Center
Thu 04:09:17 PM 35.3850 -97.6861 173° South 257 296 5,500 1,500 Climbing Fort Worth Center
Thu 04:10:00 PM 35.0295 -97.4393 168° South  Level Estimated
Thu 04:10:17 PM 35.3142 -97.6681 168° South 270 311 7,300  Level Fort Worth Center
Thu 04:11:00 PM 34.9385 -97.3991 162° South  Level Estimated
Thu 04:11:17 PM 35.2308 -97.6397 164° South 275 316 9,400  Level Fort Worth Center
Thu 04:12:00 PM 34.8476 -97.3591 154° Southeast  Level Estimated
Thu 04:12:17 PM 35.1517 -97.6142 165° South 285 328 10,700  Level Fort Worth Center
Thu 04:13:17 PM 35.0619 -97.5861 166° South 308 354 11,400 893 Climbing Fort Worth Center
Thu 04:14:18 PM 34.9661 -97.5528 164° South 336 387 12,500 1,240 Climbing Fort Worth Center
Thu 04:15:18 PM 34.8700 -97.5250 167° South 348 400 13,900 1,500 Climbing Fort Worth Center
Thu 04:16:18 PM 34.7722 -97.5044 170° South 361 415 15,500 1,600 Climbing Fort Worth Center
Thu 04:18:18 PM 34.5822 -97.4614 169° South 351 404 18,700 1,609 Climbing Fort Worth Center
Thu 04:19:17 PM 34.4864 -97.4386 169° South 351 404 20,300 1,361 Climbing Fort Worth Center
Thu 04:20:17 PM 34.3944 -97.4186 170° South 351 404 21,400 1,000 Climbing Fort Worth Center
Thu 04:21:17 PM 34.2944 -97.3858 165° South 357 411 22,300 843 Climbing Fort Worth Center
Thu 04:22:18 PM 34.1964 -97.3483 162° South 362 417 23,100 800 Climbing Fort Worth Center
Thu 04:23:17 PM 34.1064 -97.2806 148° Southeast 369 425 23,900 800 Climbing Fort Worth Center
Thu 04:24:18 PM 34.0333 -97.2106 142° Southeast 369 425 24,700 793 Climbing Fort Worth Center
Thu 04:25:18 PM 33.9456 -97.1356 145° Southeast 379 436 25,500 807 Climbing Fort Worth Center
Thu 04:26:17 PM 33.8578 -97.0583 144° Southeast 391 450 26,300 850 Climbing Fort Worth Center
Thu 04:27:18 PM 33.7697 -96.9811 144° Southeast 391 450 27,200 843 Climbing Fort Worth Center
Thu 04:28:18 PM 33.6756 -96.9192 151° Southeast 391 450 28,000 800 Climbing Fort Worth Center
Thu 04:29:18 PM 33.5692 -96.8775 162° South 391 450 28,800 500 Climbing Fort Worth Center
Thu 04:30:18 PM 33.4583 -96.8756 179° South 391 450 29,000 100 Climbing Fort Worth Center
Thu 04:31:18 PM 33.3436 -96.8814 182° South 406 467 29,000  Level Fort Worth Center
Thu 04:32:18 PM 33.2206 -96.8747 177° South 419 482 29,000  Level Fort Worth Center
Thu 04:33:18 PM 33.0992 -96.8356 165° South 440 506 29,000  Level Fort Worth Center
Thu 04:34:18 PM 32.9656 -96.7969 166° South 451 519 29,000  Level Fort Worth Center
Thu 04:35:17 PM 32.8422 -96.7631 167° South 451 519 29,000  Level Fort Worth Center
Thu 04:36:17 PM 32.7167 -96.7269 166° South 456 525 29,000  Level Fort Worth Center
Thu 04:37:18 PM 32.5914 -96.7008 170° South 456 525 29,000  Level Fort Worth Center
Thu 04:38:17 PM 32.4639 -96.6747 170° South 461 531 29,000  Level Fort Worth Center
Thu 04:39:18 PM 32.3364 -96.6511 171° South 466 536 29,000  Level Fort Worth Center
Thu 04:40:17 PM 32.2089 -96.6253 170° South 466 536 29,000  Level Fort Worth Center
Thu 04:41:17 PM 32.0833 -96.5969 169° South 466 536 29,000  Level Fort Worth Center
Thu 04:42:17 PM 31.9600 -96.5711 170° South 466 536 29,000  Level Fort Worth Center
Thu 04:43:20 PM 31.8383 -96.5450 170° South 459 528 29,000  Level Houston Center
Thu 04:44:22 PM 31.7119 -96.5192 170° South 457 526 29,000  Level Houston Center
Thu 04:45:24 PM 31.5842 -96.4928 170° South 459 528 29,000  Level Houston Center
Thu 04:46:26 PM 31.4569 -96.4664 170° South 458 527 29,000 -387 Level Houston Center
Thu 04:47:28 PM 31.3300 -96.4739 183° South 454 522 28,200 -968 Descending Houston Center
Thu 04:48:30 PM 31.1878 -96.5231 196° South 450 518 27,000 -1,065 Descending Houston Center
Thu 04:49:32 PM 31.0664 -96.5642 196° South 447 514 26,000 -1,016 Descending Houston Center
Thu 04:50:34 PM 30.9478 -96.6047 196° South 439 505 24,900 -1,008 Descending Houston Center
Thu 04:51:37 PM 30.8300 -96.5992 178° South 432 497 23,900 -1,008 Descending Houston Center
Thu 04:52:39 PM 30.7603 -96.4975 129° Southeast 411 473 22,800 -1,403 Descending Houston Center
Thu 04:53:41 PM 30.7042 -96.3856 120° Southeast 399 459 21,000 -1,839 Descending Houston Center
Thu 04:54:43 PM 30.6539 -96.2736 118° Southeast 389 448 19,000 -2,032 Descending Houston Center
Thu 04:55:45 PM 30.6025 -96.1681 119° Southeast 374 430 16,800 -2,323 Descending Houston Center
Thu 04:56:47 PM 30.5436 -96.0453 119° Southeast 372 428 14,200 -2,400 Descending Houston Center
Thu 04:57:20 PM 30.5122 -95.9869 122° Southeast 397 457 13,000 -1,551 Descending Houston Center
Thu 04:58:16 PM 30.4661 -95.8906 119° Southeast 367 422 11,900 -652 Descending Houston Center
Thu 04:58:52 PM 30.4344 -95.8447 129° Southeast 370 426 12,000 -358 Climbing Houston Center
Thu 04:59:23 PM 30.3886 -95.7956 137° Southeast 365 420 11,500 -968 Descending Houston Center
Thu 04:59:54 PM 30.3608 -95.7656 137° Southeast 359 413 11,000 -968 Descending Houston Center
Thu 05:00:56 PM 30.2872 -95.6881 138° Southeast 359 413 10,000 -581 Descending Houston Center
Thu 05:01:58 PM 30.2050 -95.6025 138° Southeast 335 386 9,800 -1,016 Descending Houston Center
Thu 05:03:00 PM 30.1461 -95.5411 138° Southeast 292 336 7,900 -1,355 Descending Houston Center
Thu 05:04:02 PM 30.1072 -95.4683 122° Southeast 282 325 7,000 -677 Descending Houston Center
Thu 05:05:04 PM 30.1061 -95.3844 91° East 262 302 6,500 -484 Descending Houston Center
Thu 05:06:06 PM 30.1058 -95.3025 90° East 255 293 6,000 -384 Descending Houston Center
Thu 05:07:09 PM 30.1061 -95.2278 90° East 238 274 5,700 -960 Descending Houston Center
Thu 05:08:11 PM 30.0728 -95.1547 118° Southeast 245 282 4,000 -919 Descending Houston Center
Thu 05:09:13 PM 30.0203 -95.1589 184° South 196 226 3,800 -871 Descending Houston Center
Thu 05:10:15 PM 29.9956 -95.2114 241° Southwest 195 224 2,200 -1,548 Descending Houston Center

Login

Don't have an account? Register now (free) for customized features, flight alerts, and more!